Time;durP1;ratioP1;P1;durP2;ratioP2;P2;SDS_P1;SDS_P2;PMS_P1;PMS_P2;Temp;Humidity;BMP_temperature;BMP_pressure;BME280_temperature;BME280_humidity;BME280_pressure;Samples;Min_cycle;Max_cycle;Signal;HPM_P1;HPM_P2
2022/06/20 00:00:05;;;;;;;16.77;5.05;;;15.80;99.90;;;;;;5075881;28;20036;-83
2022/06/20 00:02:30;;;;;;;17.25;4.95;;;15.70;99.90;;;;;;5073602;28;20039;-84
2022/06/20 00:04:59;;;;;;;14.65;5.45;;;15.60;99.90;;;;;;5074133;28;20119;-84
2022/06/20 00:07:25;;;;;;;13.05;3.95;;;15.60;99.90;;;;;;5073582;28;20055;-85
2022/06/20 00:09:50;;;;;;;14.05;4.47;;;15.60;99.90;;;;;;5074069;28;20029;-86
2022/06/20 00:12:21;;;;;;;20.27;4.57;;;15.70;99.90;;;;;;5078274;28;20024;-87
2022/06/20 00:14:50;;;;;;;17.98;4.90;;;15.80;99.90;;;;;;5089722;28;20103;-87
2022/06/20 00:17:17;;;;;;;20.13;5.50;;;15.80;99.90;;;;;;5073612;28;20032;-87
2022/06/20 00:19:43;;;;;;;12.85;4.55;;;15.70;99.90;;;;;;5070202;28;20031;-88
2022/06/20 00:22:09;;;;;;;18.58;4.40;;;15.70;99.90;;;;;;5053768;28;20477;-88
2022/06/20 00:24:38;;;;;;;15.68;4.50;;;15.70;99.90;;;;;;5053571;28;20021;-89
2022/06/20 00:27:06;;;;;;;15.40;4.82;;;15.70;99.90;;;;;;5053821;28;20488;-91
2022/06/20 00:29:33;;;;;;;15.77;4.50;;;15.60;99.90;;;;;;5067908;28;20036;-89
2022/06/20 00:32:11;;;;;;;17.50;3.75;;;15.60;99.90;;;;;;5073485;28;20017;-90
2022/06/20 00:34:37;;;;;;;15.88;4.65;;;15.70;99.90;;;;;;5072983;28;20544;-91
2022/06/20 00:37:06;;;;;;;16.88;4.40;;;15.70;99.90;;;;;;5072365;28;20059;-89
2022/06/20 00:39:32;;;;;;;18.15;4.30;;;15.60;99.90;;;;;;5071966;28;20029;-88
2022/06/20 00:42:13;;;;;;;16.80;5.10;;;15.60;99.90;;;;;;5071646;28;20044;-88
2022/06/20 00:44:45;;;;;;;10.98;4.55;;;15.50;99.90;;;;;;5073100;28;20036;-88
2022/06/20 00:47:14;;;;;;;21.05;5.93;;;15.40;99.90;;;;;;5070784;28;20035;-89
2022/06/20 00:50:02;;;;;;;15.38;5.07;;;15.40;99.90;;;;;;5059969;28;20107;-89
2022/06/20 00:52:43;;;;;;;17.67;5.32;;;15.40;99.90;;;;;;5072980;28;20067;-88
2022/06/20 00:58:40;;;;;;;14.55;5.57;;;15.30;99.90;;;;;;5059338;28;20081;-89
2022/06/20 01:01:19;;;;;;;20.35;5.63;;;15.20;99.90;;;;;;5075174;28;20016;-89
2022/06/20 01:03:50;;;;;;;11.48;4.65;;;15.20;99.90;;;;;;5068103;28;20023;-87
2022/06/20 01:06:30;;;;;;;14.73;4.78;;;15.10;99.90;;;;;;5070263;28;20584;-88
2022/06/20 01:09:09;;;;;;;18.67;5.57;;;15.20;99.90;;;;;;5085423;28;20067;-87
2022/06/20 01:11:58;;;;;;;14.40;5.72;;;15.20;99.90;;;;;;5078997;28;20053;-87
2022/06/20 01:14:37;;;;;;;16.88;5.45;;;15.20;99.90;;;;;;5070636;28;20035;-87
2022/06/20 01:17:25;;;;;;;14.23;5.28;;;15.20;99.90;;;;;;5071815;28;20139;-87
2022/06/20 01:19:58;;;;;;;12.18;4.97;;;15.10;99.90;;;;;;5072898;28;20100;-87
2022/06/20 01:22:53;;;;;;;14.18;5.55;;;15.10;99.90;;;;;;5069136;28;20426;-88
2022/06/20 01:25:52;;;;;;;18.27;5.70;;;15.00;99.90;;;;;;5078555;28;20029;-87
2022/06/20 01:28:22;;;;;;;15.15;6.00;;;15.10;99.90;;;;;;5066506;28;20115;-87
2022/06/20 01:30:48;;;;;;;14.02;5.30;;;15.00;99.90;;;;;;5070899;28;20012;-87
2022/06/20 01:33:17;;;;;;;17.42;5.30;;;15.00;99.90;;;;;;5081150;28;20047;-87
2022/06/20 01:38:37;;;;;;;12.15;5.80;;;15.00;99.90;;;;;;5072944;28;20031;-87
2022/06/20 01:43:49;;;;;;;;;;;15.00;99.90;;;;;;5072212;28;20108;-86
2022/06/20 01:46:25;;;;;;;20.45;5.72;;;14.90;99.90;;;;;;5065756;28;20404;-88
2022/06/20 01:48:53;;;;;;;17.90;6.32;;;14.90;99.90;;;;;;5058479;28;20066;-88
2022/06/20 01:51:22;;;;;;;18.83;6.15;;;14.90;99.90;;;;;;5075625;28;20048;-88
2022/06/20 01:53:52;;;;;;;14.82;6.95;;;14.80;99.90;;;;;;5071630;28;20119;-88
2022/06/20 01:56:21;;;;;;;13.45;5.80;;;14.90;99.90;;;;;;5057088;28;20108;-87
2022/06/20 01:58:53;;;;;;;27.17;6.75;;;14.80;99.90;;;;;;5074905;28;20024;-88
2022/06/20 02:01:38;;;;;;;15.60;5.20;;;14.80;99.90;;;;;;5056423;28;20107;-89
2022/06/20 02:04:06;;;;;;;21.83;5.75;;;14.80;99.90;;;;;;5073434;28;20024;-88
2022/06/20 02:06:33;;;;;;;20.88;6.38;;;14.80;99.90;;;;;;5068983;28;20040;-88
2022/06/20 02:08:59;;;;;;;21.30;7.45;;;14.90;99.90;;;;;;5059778;28;20032;-88
2022/06/20 02:11:34;;;;;;;18.05;6.93;;;14.90;99.90;;;;;;5093365;28;20024;-87
2022/06/20 02:14:12;;;;;;;15.38;6.90;;;14.90;99.90;;;;;;5082040;28;20032;-87
2022/06/20 02:16:41;;;;;;;23.20;6.60;;;14.90;99.90;;;;;;5074630;28;20059;-87
2022/06/20 02:19:18;;;;;;;16.73;6.78;;;14.90;99.90;;;;;;5075606;28;20048;-87
2022/06/20 02:21:46;;;;;;;20.17;6.88;;;15.00;99.90;;;;;;5082768;28;20095;-88
2022/06/20 02:24:17;;;;;;;21.30;6.90;;;15.00;99.90;;;;;;5075762;28;20411;-88
2022/06/20 02:26:49;;;;;;;20.50;6.03;;;15.00;99.90;;;;;;5074533;28;20024;-88
2022/06/20 02:29:26;;;;;;;18.15;7.32;;;15.00;99.90;;;;;;5075750;28;20031;-88
2022/06/20 02:31:56;;;;;;;16.38;6.78;;;14.90;99.90;;;;;;5074116;28;20024;-88
2022/06/20 02:34:29;;;;;;;19.95;7.05;;;14.90;99.90;;;;;;5073925;28;20063;-87
2022/06/20 02:36:59;;;;;;;15.30;6.72;;;14.90;99.90;;;;;;5075312;28;20052;-88
2022/06/20 02:39:25;;;;;;;13.40;6.85;;;14.90;99.90;;;;;;5069682;28;20138;-87
2022/06/20 02:41:58;;;;;;;22.75;7.25;;;14.90;99.90;;;;;;5057475;28;20115;-87
2022/06/20 02:44:25;;;;;;;19.60;8.13;;;14.90;99.90;;;;;;5057549;28;20380;-88
2022/06/20 02:46:54;;;;;;;22.38;7.22;;;14.90;99.90;;;;;;5074811;28;20036;-88
2022/06/20 02:49:33;;;;;;;23.77;8.13;;;14.90;99.90;;;;;;5073816;28;20024;-88
2022/06/20 02:52:00;;;;;;;14.32;6.80;;;14.90;99.90;;;;;;5054277;28;20493;-87
2022/06/20 02:54:29;;;;;;;19.27;7.15;;;14.80;99.90;;;;;;5071947;28;20394;-88
2022/06/20 02:57:10;;;;;;;9.90;6.60;;;14.90;99.90;;;;;;5055587;28;20504;-87
2022/06/20 02:59:42;;;;;;;21.60;8.07;;;14.80;99.90;;;;;;5072889;28;20047;-87
2022/06/20 03:02:11;;;;;;;23.48;8.32;;;14.80;99.90;;;;;;5074374;28;20032;-87
2022/06/20 03:04:42;;;;;;;24.40;8.50;;;14.90;99.90;;;;;;5075174;28;20037;-87
2022/06/20 03:07:23;;;;;;;23.67;7.28;;;14.90;99.90;;;;;;5073643;28;20055;-87
2022/06/20 03:10:30;;;;;;;13.43;6.88;;;14.80;99.90;;;;;;5075216;28;20029;-87
2022/06/20 03:12:56;;;;;;;10.13;5.05;;;14.90;99.90;;;;;;5055107;28;20457;-87
2022/06/20 03:15:22;;;;;;;10.32;5.35;;;14.90;99.90;;;;;;5071895;28;20557;-87
2022/06/20 03:17:57;;;;;;;19.02;6.35;;;14.90;99.90;;;;;;5074440;28;20021;-86
2022/06/20 03:20:25;;;;;;;16.60;7.67;;;15.00;99.90;;;;;;5075113;28;20465;-86
2022/06/20 03:23:01;;;;;;;9.23;4.88;;;15.10;99.90;;;;;;5074709;28;20036;-87
2022/06/20 03:25:31;;;;;;;7.03;4.60;;;15.10;99.90;;;;;;5077502;28;20051;-87
2022/06/20 03:27:57;;;;;;;12.05;5.43;;;15.10;99.90;;;;;;5073568;28;20040;-87
2022/06/20 03:30:35;;;;;;;17.50;6.07;;;15.20;99.90;;;;;;5070425;28;20017;-87
2022/06/20 03:33:05;;;;;;;15.77;7.25;;;15.20;99.90;;;;;;5054242;28;20037;-87
2022/06/20 03:35:33;;;;;;;16.23;6.10;;;15.20;99.90;;;;;;5068632;28;20049;-87
2022/06/20 03:38:09;;;;;;;13.68;6.55;;;15.20;99.90;;;;;;5094907;28;20468;-87
2022/06/20 03:40:39;;;;;;;18.60;6.43;;;15.20;99.90;;;;;;5067443;28;20025;-85
2022/06/20 03:43:13;;;;;;;18.90;7.43;;;15.20;99.90;;;;;;5063715;28;20083;-86
2022/06/20 03:45:47;;;;;;;19.70;7.65;;;15.10;99.90;;;;;;5068964;28;20401;-86
2022/06/20 03:48:43;;;;;;;19.17;9.00;;;15.10;99.90;;;;;;5069134;28;20096;-86
2022/06/20 03:51:18;;;;;;;24.08;8.93;;;15.10;99.90;;;;;;5071537;28;20025;-86
2022/06/20 03:53:58;;;;;;;19.13;8.65;;;15.10;99.90;;;;;;5071827;28;20021;-86
2022/06/20 03:56:31;;;;;;;37.40;10.75;;;15.00;99.90;;;;;;5070603;28;20033;-86
2022/06/20 03:59:27;;;;;;;26.92;9.77;;;14.90;99.90;;;;;;5072355;28;20107;-86
2022/06/20 04:02:06;;;;;;;23.85;9.38;;;14.80;99.90;;;;;;5070957;28;20032;-88
2022/06/20 04:04:55;;;;;;;24.85;10.00;;;14.80;99.90;;;;;;5052595;28;20045;-90
2022/06/20 04:07:46;;;;;;;27.52;9.65;;;14.80;99.90;;;;;;5066700;28;20044;-91
2022/06/20 04:13:40;;;;;;;27.80;9.80;;;14.60;99.90;;;;;;5073173;28;20412;-91
2022/06/20 04:16:43;;;;;;;21.50;7.20;;;14.60;99.90;;;;;;5051273;28;20489;-92
2022/06/20 04:19:22;;;;;;;19.10;6.63;;;14.50;99.90;;;;;;5014299;28;20054;-91
2022/06/20 04:22:17;;;;;;;23.65;7.00;;;14.40;99.90;;;;;;5024723;28;20033;-91
2022/06/20 04:28:36;;;;;;;17.42;7.18;;;14.30;99.90;;;;;;5051904;28;20028;-90
2022/06/20 04:31:15;;;;;;;21.00;8.07;;;14.30;99.90;;;;;;5079515;28;20024;-92
2022/06/20 04:34:09;;;;;;;11.05;6.13;;;14.30;99.90;;;;;;5081304;28;20081;-91
2022/06/20 04:36:53;;;;;;;17.55;7.25;;;14.40;99.90;;;;;;5072727;28;20028;-92
2022/06/20 04:39:59;;;;;;;20.40;9.07;;;14.40;99.90;;;;;;5072656;28;20024;-93
2022/06/20 04:42:49;;;;;;;25.90;8.37;;;14.40;99.90;;;;;;5059509;28;20028;-92
2022/06/20 04:45:51;;;;;;;25.98;9.50;;;14.40;99.90;;;;;;5073385;28;20123;-91
2022/06/20 04:48:22;;;;;;;15.25;8.30;;;14.40;99.90;;;;;;5065590;28;20064;-89
2022/06/20 04:50:54;;;;;;;18.73;9.82;;;14.40;99.90;;;;;;5072991;28;20095;-88
2022/06/20 04:53:44;;;;;;;12.82;7.40;;;14.30;99.90;;;;;;5052868;28;20043;-87
2022/06/20 04:56:13;;;;;;;15.98;9.50;;;14.30;99.90;;;;;;5053176;28;20029;-88
2022/06/20 04:58:52;;;;;;;16.10;11.93;;;14.40;99.90;;;;;;5060152;28;20564;-88
2022/06/20 05:01:53;;;;;;;14.80;12.02;;;14.40;99.90;;;;;;5068491;28;20112;-87
2022/06/20 05:04:29;;;;;;;18.02;12.80;;;14.40;99.90;;;;;;5070256;28;20029;-87
2022/06/20 05:07:01;;;;;;;20.02;13.55;;;14.40;99.90;;;;;;5070603;28;20036;-87
2022/06/20 05:09:51;;;;;;;15.80;12.20;;;14.40;99.90;;;;;;5053100;28;20033;-87
2022/06/20 05:12:40;;;;;;;21.65;13.63;;;14.40;99.90;;;;;;5071540;28;20044;-87
2022/06/20 05:15:27;;;;;;;22.10;14.23;;;14.40;99.90;;;;;;5072188;28;20103;-87
2022/06/20 05:17:56;;;;;;;19.77;12.93;;;14.40;99.90;;;;;;5073290;28;20086;-86
2022/06/20 05:20:35;;;;;;;21.65;15.40;;;14.30;99.90;;;;;;5073256;28;20391;-86
2022/06/20 05:23:20;;;;;;;20.00;12.50;;;14.30;99.90;;;;;;5071327;28;20078;-86
2022/06/20 05:25:45;;;;;;;20.42;13.63;;;14.40;99.90;;;;;;5069366;28;20126;-86
2022/06/20 05:28:17;;;;;;;14.82;11.98;;;14.40;99.90;;;;;;5073024;28;20475;-86
2022/06/20 05:30:48;;;;;;;15.43;10.80;;;14.40;99.90;;;;;;5072088;28;20376;-86
2022/06/20 05:33:42;;;;;;;13.25;10.43;;;14.40;99.90;;;;;;5060024;28;20024;-86
2022/06/20 05:36:40;;;;;;;14.73;9.30;;;14.40;99.90;;;;;;5065395;28;20029;-86
2022/06/20 05:39:36;;;;;;;20.20;12.52;;;14.50;99.90;;;;;;5072047;28;20029;-86
2022/06/20 05:42:03;;;;;;;19.10;11.30;;;14.50;99.90;;;;;;5073175;28;20029;-86
2022/06/20 05:44:28;;;;;;;17.02;11.55;;;14.60;99.90;;;;;;5060290;28;20103;-86
2022/06/20 05:47:04;;;;;;;12.40;9.35;;;14.60;99.90;;;;;;5071518;28;20111;-85
2022/06/20 05:49:35;;;;;;;8.98;6.90;;;14.60;99.90;;;;;;5069107;28;20099;-85
2022/06/20 05:52:02;;;;;;;5.90;5.30;;;14.60;99.90;;;;;;5052978;28;20032;-86
2022/06/20 05:54:36;;;;;;;8.25;6.95;;;14.60;99.90;;;;;;5050536;28;20025;-85
2022/06/20 05:57:08;;;;;;;10.85;9.10;;;14.60;99.90;;;;;;5051100;28;20025;-85
2022/06/20 06:00:12;;;;;;;9.70;7.07;;;14.60;99.90;;;;;;5052491;28;20431;-85
2022/06/20 06:02:45;;;;;;;9.88;7.93;;;14.60;99.90;;;;;;5024650;28;20041;-85
2022/06/20 06:05:30;;;;;;;9.95;7.68;;;14.70;99.90;;;;;;5070664;28;20026;-85
2022/06/20 06:08:07;;;;;;;12.35;9.80;;;14.70;99.90;;;;;;5070316;28;20033;-87
2022/06/20 06:10:52;;;;;;;10.18;7.70;;;14.70;99.90;;;;;;5060107;28;20017;-86
2022/06/20 06:13:26;;;;;;;8.02;7.22;;;14.80;99.90;;;;;;5065377;28;20385;-85
2022/06/20 06:19:09;;;;;;;13.70;9.23;;;14.80;99.90;;;;;;5070363;28;20066;-86
2022/06/20 06:21:36;;;;;;;9.63;8.18;;;14.80;99.90;;;;;;5030822;28;20090;-86
2022/06/20 06:24:05;;;;;;;9.38;7.05;;;14.80;99.90;;;;;;5068376;28;20036;-86
2022/06/20 06:26:33;;;;;;;9.55;6.85;;;14.80;99.90;;;;;;5069085;28;20033;-86
2022/06/20 06:29:20;;;;;;;11.05;7.63;;;14.80;99.90;;;;;;5057506;28;20544;-86
2022/06/20 06:31:49;;;;;;;11.88;8.65;;;14.70;99.90;;;;;;5062201;28;20028;-86
2022/06/20 06:34:25;;;;;;;12.05;8.35;;;14.70;99.90;;;;;;5070112;28;20016;-86
2022/06/20 06:36:57;;;;;;;8.43;7.50;;;14.70;99.90;;;;;;5078694;28;20025;-86
2022/06/20 06:39:28;;;;;;;10.77;6.90;;;14.70;99.90;;;;;;5074614;28;20111;-86
2022/06/20 06:41:57;;;;;;;16.17;6.47;;;14.60;99.90;;;;;;5073368;28;20029;-86
2022/06/20 06:44:54;;;;;;;8.82;6.68;;;14.60;99.90;;;;;;5074756;28;20430;-87
2022/06/20 06:47:38;;;;;;;10.45;7.55;;;14.50;99.90;;;;;;5070360;28;20033;-87
2022/06/20 06:50:36;;;;;;;14.73;7.97;;;14.50;99.90;;;;;;5061925;28;20025;-87
2022/06/20 06:53:15;;;;;;;8.77;6.82;;;14.40;99.90;;;;;;5073196;28;20044;-87
2022/06/20 06:55:56;;;;;;;8.60;7.18;;;14.50;99.90;;;;;;5071280;28;20067;-86
2022/06/20 06:59:10;;;;;;;9.35;7.13;;;14.40;99.90;;;;;;5054095;28;20036;-86
2022/06/20 07:01:41;;;;;;;11.43;7.32;;;14.40;99.90;;;;;;5041549;28;20051;-86
2022/06/20 07:04:45;;;;;;;8.60;7.80;;;14.40;99.90;;;;;;5069305;28;20035;-86
2022/06/20 07:07:18;;;;;;;9.70;8.23;;;14.30;99.90;;;;;;5073225;28;20083;-86
2022/06/20 07:09:49;;;;;;;10.38;8.65;;;14.30;99.90;;;;;;5068492;28;20439;-85
2022/06/20 07:12:56;;;;;;;9.80;8.80;;;14.30;99.90;;;;;;5067060;28;20093;-86
2022/06/20 07:15:24;;;;;;;11.38;9.55;;;14.30;99.90;;;;;;5067857;28;20385;-85
2022/06/20 07:17:57;;;;;;;14.43;10.98;;;14.20;99.90;;;;;;5070633;28;20028;-86
2022/06/20 07:20:36;;;;;;;14.07;12.57;;;14.20;99.90;;;;;;5072653;28;20074;-85
2022/06/20 07:23:05;;;;;;;16.10;13.15;;;14.20;99.90;;;;;;5070604;28;20063;-85
2022/06/20 07:25:37;;;;;;;19.80;17.15;;;14.20;99.90;;;;;;5067631;28;20067;-86
2022/06/20 07:28:12;;;;;;;22.23;19.27;;;14.20;99.90;;;;;;5072675;28;20048;-85
2022/06/20 07:30:43;;;;;;;21.90;19.48;;;14.10;99.90;;;;;;5072827;28;20024;-85
2022/06/20 07:33:39;;;;;;;24.88;21.65;;;14.10;99.90;;;;;;5074229;28;20112;-86
2022/06/20 07:36:08;;;;;;;23.15;20.52;;;14.20;99.90;;;;;;5069160;28;20123;-85
2022/06/20 07:38:47;;;;;;;22.65;19.40;;;14.10;99.90;;;;;;5073298;28;20314;-85
2022/06/20 07:41:24;;;;;;;20.35;17.40;;;14.20;99.90;;;;;;5065899;28;20025;-85
2022/06/20 07:44:05;;;;;;;20.42;17.05;;;14.10;99.90;;;;;;5054485;28;20029;-85
2022/06/20 07:46:40;;;;;;;17.65;15.32;;;14.10;99.90;;;;;;5071849;28;20040;-86
2022/06/20 07:49:23;;;;;;;17.33;13.73;;;14.10;99.90;;;;;;5073305;28;20020;-86
2022/06/20 07:51:53;;;;;;;14.55;12.65;;;14.10;99.90;;;;;;5071429;28;20028;-85
2022/06/20 07:54:32;;;;;;;15.40;13.63;;;14.10;99.90;;;;;;5073192;28;20120;-86
2022/06/20 07:57:04;;;;;;;17.35;13.70;;;14.10;99.90;;;;;;5072889;28;20063;-86
2022/06/20 07:59:35;;;;;;;16.02;13.18;;;14.10;99.90;;;;;;5074597;28;20028;-85
2022/06/20 08:02:27;;;;;;;17.83;12.95;;;14.10;99.90;;;;;;5068145;28;20543;-85
2022/06/20 08:04:57;;;;;;;17.58;13.60;;;14.10;99.90;;;;;;5063265;28;20040;-85
2022/06/20 08:07:43;;;;;;;12.20;10.90;;;14.10;99.90;;;;;;5072100;28;20037;-86
2022/06/20 08:10:20;;;;;;;13.90;11.88;;;14.10;99.90;;;;;;5073783;28;20027;-85
2022/06/20 08:12:59;;;;;;;9.90;8.50;;;14.10;99.90;;;;;;5071976;28;20467;-85
2022/06/20 08:15:39;;;;;;;8.75;7.43;;;14.10;99.90;;;;;;5065402;28;20107;-85
2022/06/20 08:18:04;;;;;;;10.82;8.23;;;14.10;99.90;;;;;;5071921;28;20036;-86
2022/06/20 08:20:36;;;;;;;9.27;8.27;;;14.00;99.90;;;;;;5072767;28;20107;-86
2022/06/20 08:23:36;;;;;;;7.72;6.75;;;14.00;99.90;;;;;;5072526;28;20386;-86
2022/06/20 08:26:07;;;;;;;8.57;7.13;;;13.90;99.90;;;;;;5053348;28;20060;-85
2022/06/20 08:28:58;;;;;;;9.32;8.05;;;13.90;99.90;;;;;;5066664;28;20051;-86
2022/06/20 08:31:31;;;;;;;13.02;9.25;;;13.80;99.90;;;;;;5072313;28;20061;-85
2022/06/20 08:34:24;;;;;;;12.38;10.30;;;13.80;99.90;;;;;;5069313;28;20017;-85
2022/06/20 08:37:05;;;;;;;15.13;12.02;;;13.80;99.90;;;;;;5067003;28;20503;-86
2022/06/20 08:39:54;;;;;;;16.77;12.10;;;13.70;99.90;;;;;;5068697;28;20039;-86
2022/06/20 08:42:59;;;;;;;17.40;14.02;;;13.70;99.90;;;;;;5068757;28;20481;-85
2022/06/20 08:46:09;;;;;;;18.90;14.52;;;13.60;99.90;;;;;;5072807;28;20081;-85
2022/06/20 08:49:07;;;;;;;21.25;16.88;;;13.60;99.90;;;;;;5064157;28;20032;-84
2022/06/20 08:52:06;;;;;;;24.85;18.17;;;13.50;99.90;;;;;;5071540;28;20033;-86
2022/06/20 08:55:09;;;;;;;28.20;19.70;;;13.50;99.90;;;;;;5071329;28;20024;-86
2022/06/20 08:58:07;;;;;;;28.67;20.95;;;13.50;99.90;;;;;;5069066;28;20074;-86
2022/06/20 09:00:44;;;;;;;26.65;18.15;;;13.50;99.90;;;;;;5071254;28;20031;-86
2022/06/20 09:03:31;;;;;;;30.73;19.48;;;13.50;99.90;;;;;;5068565;28;20020;-85
2022/06/20 09:06:18;;;;;;;23.33;17.98;;;13.40;99.90;;;;;;5062883;28;20024;-86
2022/06/20 09:09:15;;;;;;;17.88;13.85;;;13.40;99.90;;;;;;5072381;28;20051;-86
2022/06/20 09:11:47;;;;;;;22.10;14.27;;;13.30;99.90;;;;;;5055515;28;20032;-86
2022/06/20 09:14:27;;;;;;;23.38;13.82;;;13.30;99.90;;;;;;5071120;28;20033;-86
2022/06/20 09:17:04;;;;;;;21.33;14.18;;;13.20;99.90;;;;;;5069621;28;20094;-86
2022/06/20 09:19:59;;;;;;;20.77;12.95;;;13.20;99.90;;;;;;5070913;28;20025;-86
2022/06/20 09:22:57;;;;;;;22.63;13.40;;;13.20;99.90;;;;;;5052576;28;20088;-88
2022/06/20 09:25:46;;;;;;;24.67;14.50;;;13.20;99.90;;;;;;5071472;28;20020;-86
2022/06/20 09:28:30;;;;;;;31.60;13.70;;;13.20;99.90;;;;;;5071537;28;20097;-85
2022/06/20 09:31:17;;;;;;;20.33;13.68;;;13.10;99.90;;;;;;5070420;28;20040;-87
2022/06/20 09:33:54;;;;;;;20.23;13.63;;;13.10;99.90;;;;;;5063699;28;20569;-88
2022/06/20 09:36:54;;;;;;;21.23;13.55;;;13.10;99.90;;;;;;5071755;28;20021;-88
2022/06/20 09:42:58;;;;;;;23.75;12.60;;;13.10;99.90;;;;;;5072414;28;20522;-88
2022/06/20 09:45:41;;;;;;;22.50;13.35;;;13.10;99.90;;;;;;5072712;28;20388;-88
2022/06/20 09:48:21;;;;;;;18.25;13.50;;;13.10;99.90;;;;;;5062082;28;20029;-88
2022/06/20 09:50:59;;;;;;;23.67;14.68;;;13.10;99.90;;;;;;5058196;28;20028;-89
2022/06/20 09:53:38;;;;;;;19.10;13.68;;;13.10;99.90;;;;;;5070630;28;20036;-89
2022/06/20 09:56:31;;;;;;;19.48;12.82;;;13.10;99.90;;;;;;5069408;28;20577;-88
2022/06/20 09:59:41;;;;;;;18.63;12.90;;;13.10;99.90;;;;;;5060724;28;20465;-88
2022/06/20 10:02:50;;;;;;;14.68;10.80;;;13.10;99.90;;;;;;5060650;28;20484;-87
2022/06/20 10:05:36;;;;;;;23.60;10.90;;;13.10;99.90;;;;;;5042207;28;20044;-87
2022/06/20 10:08:44;;;;;;;14.70;11.60;;;13.10;99.90;;;;;;5070779;28;20097;-86
2022/06/20 10:11:45;;;;;;;18.65;12.82;;;13.00;99.90;;;;;;5075514;28;20476;-87
2022/06/20 10:14:18;;;;;;;21.20;12.57;;;13.00;99.90;;;;;;5074691;28;20113;-86
2022/06/20 10:17:28;;;;;;;21.63;13.80;;;13.00;99.90;;;;;;5064689;28;20036;-87
2022/06/20 10:20:23;;;;;;;17.60;13.80;;;13.10;99.90;;;;;;5070940;28;20396;-86
2022/06/20 10:22:54;;;;;;;15.65;12.20;;;13.10;99.90;;;;;;5074219;28;20472;-86
2022/06/20 10:25:46;;;;;;;11.55;8.55;;;13.10;99.90;;;;;;5061264;28;20032;-86
2022/06/20 10:28:43;;;;;;;13.00;9.50;;;13.00;99.90;;;;;;5061882;28;20025;-86
2022/06/20 10:31:38;;;;;;;11.80;8.75;;;13.00;99.90;;;;;;5074489;28;20016;-86
2022/06/20 10:34:25;;;;;;;12.27;7.50;;;13.00;99.90;;;;;;5069309;28;20040;-86
2022/06/20 10:37:34;;;;;;;11.50;6.80;;;13.00;99.90;;;;;;5056294;28;20040;-86
2022/06/20 10:40:32;;;;;;;14.07;8.43;;;13.00;99.90;;;;;;5075264;28;20473;-86
2022/06/20 10:43:11;;;;;;;13.30;8.32;;;13.00;99.90;;;;;;5059988;28;20036;-86
2022/06/20 10:46:20;;;;;;;15.32;8.90;;;13.00;99.90;;;;;;5062575;28;20116;-86
2022/06/20 10:49:27;;;;;;;10.57;8.73;;;13.00;99.90;;;;;;5030989;28;20472;-86
2022/06/20 10:52:21;;;;;;;11.55;8.35;;;13.10;99.90;;;;;;5076172;28;20480;-86
2022/06/20 10:54:56;;;;;;;10.30;7.47;;;13.10;99.90;;;;;;5060323;28;20020;-86
2022/06/20 10:58:06;;;;;;;9.68;6.95;;;13.10;99.90;;;;;;5074096;28;20032;-86
2022/06/20 11:00:38;;;;;;;12.00;5.78;;;13.10;99.90;;;;;;5070709;28;20036;-86
2022/06/20 11:03:38;;;;;;;10.77;6.10;;;13.10;99.90;;;;;;5082258;28;20028;-87
2022/06/20 11:06:50;;;;;;;7.65;5.38;;;13.10;99.90;;;;;;5055475;28;20417;-87
2022/06/20 11:09:19;;;;;;;6.50;4.32;;;13.10;99.90;;;;;;5079806;28;20055;-88
2022/06/20 11:12:33;;;;;;;15.15;5.88;;;13.10;99.90;;;;;;5078251;28;20380;-88
2022/06/20 11:15:13;;;;;;;8.77;3.88;;;13.10;99.90;;;;;;5081328;28;20500;-87
2022/06/20 11:18:23;;;;;;;4.97;3.42;;;13.00;99.90;;;;;;5069526;28;20035;-88
2022/06/20 11:21:01;;;;;;;4.75;3.70;;;13.00;99.90;;;;;;5080400;28;20021;-87
2022/06/20 11:23:58;;;;;;;7.45;3.55;;;13.00;99.90;;;;;;5059891;28;20024;-87
2022/06/20 11:26:52;;;;;;;5.53;3.88;;;13.00;99.90;;;;;;5064625;28;20579;-86
2022/06/20 11:29:49;;;;;;;7.32;2.85;;;13.00;99.90;;;;;;5074208;28;20028;-86
2022/06/20 11:32:38;;;;;;;7.47;2.78;;;13.10;99.90;;;;;;5072114;28;20486;-86
2022/06/20 11:35:49;;;;;;;6.38;2.92;;;13.00;99.90;;;;;;5060605;28;20070;-88
2022/06/20 11:38:57;;;;;;;7.45;2.58;;;13.00;99.90;;;;;;5074584;28;20025;-88
2022/06/20 11:41:30;;;;;;;9.15;2.55;;;13.00;99.90;;;;;;5072335;28;20033;-87
2022/06/20 11:44:19;;;;;;;6.28;2.72;;;13.00;99.90;;;;;;5074279;28;20475;-87
2022/06/20 11:46:59;;;;;;;8.82;2.80;;;13.00;99.90;;;;;;5058821;28;20051;-87
2022/06/20 11:49:56;;;;;;;8.63;3.00;;;13.10;99.90;;;;;;5072205;28;20028;-87
2022/06/20 11:52:42;;;;;;;6.00;2.22;;;13.10;99.90;;;;;;5074386;28;20027;-86
2022/06/20 11:55:30;;;;;;;2.75;2.13;;;13.10;99.90;;;;;;5072811;28;20078;-86
2022/06/20 11:58:15;;;;;;;5.40;2.20;;;13.10;99.90;;;;;;5072954;28;20025;-86
2022/06/20 12:01:00;;;;;;;9.45;2.90;;;13.20;99.90;;;;;;5073635;28;20103;-87
2022/06/20 12:03:28;;;;;;;9.98;3.15;;;13.10;99.90;;;;;;5073295;28;20063;-86
2022/06/20 12:06:03;;;;;;;12.07;2.42;;;13.20;99.90;;;;;;5069363;28;20041;-86
2022/06/20 12:08:33;;;;;;;10.15;2.47;;;13.20;99.90;;;;;;5069395;28;20488;-86
2022/06/20 12:11:17;;;;;;;14.23;3.05;;;13.30;99.90;;;;;;5072998;28;20111;-86
2022/06/20 12:14:23;;;;;;;7.72;2.78;;;13.30;99.90;;;;;;5073654;28;20025;-86
2022/06/20 12:16:59;;;;;;;11.10;2.67;;;13.30;99.90;;;;;;5065168;28;20170;-86
2022/06/20 12:25:44;;;;;;;14.77;2.65;;;13.40;99.90;;;;;;5058528;28;20078;-85
2022/06/20 12:28:22;;;;;;;23.65;3.22;;;13.40;99.90;;;;;;5078652;28;20048;-85
2022/06/20 12:31:15;;;;;;;11.02;2.47;;;13.40;99.90;;;;;;5066047;28;20473;-86
2022/06/20 12:33:44;;;;;;;12.38;2.47;;;13.40;99.90;;;;;;5071530;28;20396;-85
2022/06/20 12:36:38;;;;;;;10.93;2.75;;;13.50;99.90;;;;;;5064705;28;20036;-86
2022/06/20 12:39:16;;;;;;;9.35;2.47;;;13.40;99.90;;;;;;5073109;28;20058;-85
2022/06/20 12:42:06;;;;;;;21.92;3.17;;;13.50;99.90;;;;;;5071519;28;20028;-85
2022/06/20 12:44:40;;;;;;;15.40;3.05;;;13.50;99.90;;;;;;5071155;28;20028;-85
2022/06/20 12:47:43;;;;;;;16.77;3.03;;;13.40;99.90;;;;;;5056911;28;20114;-86
2022/06/20 12:50:42;;;;;;;10.63;3.47;;;13.40;99.90;;;;;;5066463;28;20026;-86
2022/06/20 12:53:41;;;;;;;10.63;3.70;;;13.30;99.90;;;;;;5073049;28;20417;-86
2022/06/20 12:56:48;;;;;;;13.55;2.63;;;13.40;99.90;;;;;;5071082;28;20122;-86
2022/06/20 12:59:25;;;;;;;5.20;2.42;;;13.40;99.90;;;;;;5073017;28;20464;-86
2022/06/20 13:05:14;;;;;;;10.30;3.23;;;13.50;99.90;;;;;;5064077;28;20481;-85
2022/06/20 13:08:11;;;;;;;10.90;2.85;;;13.50;99.90;;;;;;5071669;28;20135;-85
2022/06/20 13:10:51;;;;;;;12.02;2.75;;;13.60;99.90;;;;;;5066412;28;20067;-85
2022/06/20 13:14:18;;;;;;;7.05;2.33;;;13.70;99.90;;;;;;5055370;28;20047;-84
2022/06/20 13:17:14;;;;;;;8.98;2.47;;;13.70;99.90;;;;;;5084235;28;20080;-85
2022/06/20 13:19:40;;;;;;;;;;;13.90;99.90;;;;;;5071723;28;20050;-84
2022/06/20 13:22:26;;;;;;;9.73;2.28;;;13.90;99.90;;;;;;5069939;28;19912;-85
2022/06/20 13:25:10;;;;;;;;;;;13.90;99.90;;;;;;5073046;28;20047;-84
2022/06/20 13:27:48;;;;;;;14.68;2.60;;;14.00;99.90;;;;;;5072053;28;20387;-84
2022/06/20 13:30:20;;;;;;;9.43;2.58;;;14.10;99.90;;;;;;5071347;28;20028;-84
2022/06/20 13:33:21;;;;;;;9.25;2.22;;;14.10;99.90;;;;;;5069141;28;20020;-84
2022/06/20 13:36:01;;;;;;;7.32;2.50;;;14.20;99.90;;;;;;5065242;28;20023;-84
2022/06/20 13:39:03;;;;;;;11.30;3.03;;;14.30;99.90;;;;;;5055150;28;20032;-84
2022/06/20 13:41:40;;;;;;;6.15;2.13;;;14.40;99.90;;;;;;4989485;28;20030;-84
2022/06/20 13:44:31;;;;;;;9.25;2.80;;;14.50;99.90;;;;;;5061750;28;20048;-84
2022/06/20 13:47:19;;;;;;;12.23;2.72;;;14.70;99.90;;;;;;5066317;28;20099;-84
2022/06/20 13:50:17;;;;;;;8.55;2.30;;;14.70;99.90;;;;;;5051291;28;20536;-84
2022/06/20 13:53:11;;;;;;;11.02;2.47;;;14.70;99.90;;;;;;5052292;28;20105;-84
2022/06/20 13:55:46;;;;;;;9.45;2.80;;;14.80;99.90;;;;;;5070811;28;20021;-84
2022/06/20 13:58:19;;;;;;;11.63;2.85;;;14.90;99.90;;;;;;5071645;28;20021;-84
2022/06/20 14:01:05;;;;;;;17.00;2.58;;;15.00;99.90;;;;;;5051990;28;20033;-84
2022/06/20 14:04:06;;;;;;;13.90;2.55;;;15.00;99.90;;;;;;5055378;28;20052;-84
2022/06/20 14:07:01;;;;;;;11.43;2.55;;;15.10;99.90;;;;;;5069031;28;20035;-84
2022/06/20 14:09:35;;;;;;;9.07;2.42;;;15.20;99.90;;;;;;5053063;28;20049;-84
2022/06/20 14:12:17;;;;;;;16.45;3.28;;;15.30;99.90;;;;;;5050937;28;20082;-84
2022/06/20 14:14:50;;;;;;;9.57;2.67;;;15.30;99.90;;;;;;5059587;28;20025;-84
2022/06/20 14:17:27;;;;;;;11.48;2.67;;;15.40;99.90;;;;;;5068874;28;20025;-84
2022/06/20 14:20:21;;;;;;;14.15;2.45;;;15.50;99.90;;;;;;5070124;28;20549;-84
2022/06/20 14:22:50;;;;;;;8.02;2.45;;;15.50;99.90;;;;;;5065110;28;20393;-84